sensor_id;sensor_type;location;lat;lon;timestamp;P1;durP1;ratioP1;P2;durP2;ratioP2
1751;SDS011;873;47.696;8.068;2023-06-24T00:00:27;1.23;;;0.80;;
1751;SDS011;873;47.696;8.068;2023-06-24T00:02:52;1.93;;;1.20;;
1751;SDS011;873;47.696;8.068;2023-06-24T00:05:19;1.70;;;0.93;;
1751;SDS011;873;47.696;8.068;2023-06-24T00:07:44;0.83;;;0.83;;
1751;SDS011;873;47.696;8.068;2023-06-24T00:10:12;2.60;;;1.40;;
1751;SDS011;873;47.696;8.068;2023-06-24T00:12:39;1.90;;;0.90;;
1751;SDS011;873;47.696;8.068;2023-06-24T00:15:06;1.93;;;1.10;;
1751;SDS011;873;47.696;8.068;2023-06-24T00:17:34;1.30;;;1.00;;
1751;SDS011;873;47.696;8.068;2023-06-24T00:19:59;1.73;;;1.00;;
1751;SDS011;873;47.696;8.068;2023-06-24T00:22:25;2.53;;;1.30;;
1751;SDS011;873;47.696;8.068;2023-06-24T00:24:50;1.97;;;1.10;;
1751;SDS011;873;47.696;8.068;2023-06-24T00:27:16;1.20;;;1.07;;
1751;SDS011;873;47.696;8.068;2023-06-24T00:29:42;2.60;;;1.07;;
1751;SDS011;873;47.696;8.068;2023-06-24T00:32:08;1.43;;;0.83;;
1751;SDS011;873;47.696;8.068;2023-06-24T00:34:34;2.10;;;1.10;;
1751;SDS011;873;47.696;8.068;2023-06-24T00:36:59;2.60;;;1.23;;
1751;SDS011;873;47.696;8.068;2023-06-24T00:39:25;1.83;;;1.20;;
1751;SDS011;873;47.696;8.068;2023-06-24T00:41:50;1.67;;;1.20;;
1751;SDS011;873;47.696;8.068;2023-06-24T00:44:16;2.17;;;1.23;;
1751;SDS011;873;47.696;8.068;2023-06-24T00:46:41;1.77;;;1.13;;
1751;SDS011;873;47.696;8.068;2023-06-24T00:49:07;1.90;;;1.07;;
1751;SDS011;873;47.696;8.068;2023-06-24T00:51:33;2.27;;;1.27;;
1751;SDS011;873;47.696;8.068;2023-06-24T00:54:01;1.73;;;1.10;;
1751;SDS011;873;47.696;8.068;2023-06-24T00:56:30;1.63;;;1.13;;
1751;SDS011;873;47.696;8.068;2023-06-24T00:58:57;1.07;;;0.93;;
1751;SDS011;873;47.696;8.068;2023-06-24T01:01:24;1.47;;;1.33;;
1751;SDS011;873;47.696;8.068;2023-06-24T01:03:50;2.17;;;1.47;;
1751;SDS011;873;47.696;8.068;2023-06-24T01:06:16;3.37;;;1.40;;
1751;SDS011;873;47.696;8.068;2023-06-24T01:08:41;2.20;;;1.30;;
1751;SDS011;873;47.696;8.068;2023-06-24T01:11:07;1.63;;;1.33;;
1751;SDS011;873;47.696;8.068;2023-06-24T01:13:32;1.87;;;1.07;;
1751;SDS011;873;47.696;8.068;2023-06-24T01:15:59;1.73;;;1.43;;
1751;SDS011;873;47.696;8.068;2023-06-24T01:18:31;2.37;;;1.37;;
1751;SDS011;873;47.696;8.068;2023-06-24T01:24:07;2.93;;;1.60;;
1751;SDS011;873;47.696;8.068;2023-06-24T01:32:59;2.20;;;1.40;;
1751;SDS011;873;47.696;8.068;2023-06-24T01:35:29;2.60;;;1.70;;
1751;SDS011;873;47.696;8.068;2023-06-24T01:37:57;2.60;;;1.50;;
1751;SDS011;873;47.696;8.068;2023-06-24T01:40:27;3.17;;;1.60;;
1751;SDS011;873;47.696;8.068;2023-06-24T01:42:56;2.10;;;1.37;;
1751;SDS011;873;47.696;8.068;2023-06-24T01:45:23;2.33;;;1.37;;
1751;SDS011;873;47.696;8.068;2023-06-24T01:47:54;2.53;;;1.40;;
1751;SDS011;873;47.696;8.068;2023-06-24T01:50:44;2.00;;;1.33;;
1751;SDS011;873;47.696;8.068;2023-06-24T01:53:14;3.50;;;1.43;;
1751;SDS011;873;47.696;8.068;2023-06-24T01:55:40;2.20;;;1.60;;
1751;SDS011;873;47.696;8.068;2023-06-24T01:58:07;2.70;;;1.63;;
1751;SDS011;873;47.696;8.068;2023-06-24T02:00:33;2.63;;;1.97;;
1751;SDS011;873;47.696;8.068;2023-06-24T02:02:59;3.07;;;2.00;;
1751;SDS011;873;47.696;8.068;2023-06-24T02:05:27;2.13;;;1.50;;
1751;SDS011;873;47.696;8.068;2023-06-24T02:07:53;2.27;;;1.63;;
1751;SDS011;873;47.696;8.068;2023-06-24T02:10:20;2.93;;;2.00;;
1751;SDS011;873;47.696;8.068;2023-06-24T02:12:47;2.77;;;1.90;;
1751;SDS011;873;47.696;8.068;2023-06-24T02:15:14;3.13;;;1.47;;
1751;SDS011;873;47.696;8.068;2023-06-24T02:17:40;4.30;;;2.07;;
1751;SDS011;873;47.696;8.068;2023-06-24T02:20:06;2.97;;;1.93;;
1751;SDS011;873;47.696;8.068;2023-06-24T02:22:34;2.83;;;1.80;;
1751;SDS011;873;47.696;8.068;2023-06-24T02:25:00;2.60;;;1.87;;
1751;SDS011;873;47.696;8.068;2023-06-24T02:27:27;5.87;;;2.10;;
1751;SDS011;873;47.696;8.068;2023-06-24T02:29:52;7.57;;;1.87;;
1751;SDS011;873;47.696;8.068;2023-06-24T02:32:19;3.23;;;1.70;;
1751;SDS011;873;47.696;8.068;2023-06-24T02:34:45;3.53;;;1.70;;
1751;SDS011;873;47.696;8.068;2023-06-24T02:37:11;2.63;;;1.90;;
1751;SDS011;873;47.696;8.068;2023-06-24T02:39:36;2.50;;;1.67;;
1751;SDS011;873;47.696;8.068;2023-06-24T02:42:09;3.03;;;1.77;;
1751;SDS011;873;47.696;8.068;2023-06-24T02:44:35;2.33;;;1.47;;
1751;SDS011;873;47.696;8.068;2023-06-24T02:47:01;2.67;;;1.57;;
1751;SDS011;873;47.696;8.068;2023-06-24T02:49:27;2.47;;;1.33;;
1751;SDS011;873;47.696;8.068;2023-06-24T02:51:53;2.50;;;1.60;;
1751;SDS011;873;47.696;8.068;2023-06-24T02:54:19;3.00;;;1.67;;
1751;SDS011;873;47.696;8.068;2023-06-24T02:56:45;2.57;;;1.73;;
1751;SDS011;873;47.696;8.068;2023-06-24T02:59:10;3.00;;;1.67;;
1751;SDS011;873;47.696;8.068;2023-06-24T03:01:36;3.30;;;1.50;;
1751;SDS011;873;47.696;8.068;2023-06-24T03:04:04;2.07;;;1.50;;
1751;SDS011;873;47.696;8.068;2023-06-24T03:06:29;3.07;;;1.50;;
1751;SDS011;873;47.696;8.068;2023-06-24T03:08:56;2.70;;;1.77;;
1751;SDS011;873;47.696;8.068;2023-06-24T03:11:22;2.60;;;1.67;;
1751;SDS011;873;47.696;8.068;2023-06-24T03:13:48;2.93;;;1.87;;
1751;SDS011;873;47.696;8.068;2023-06-24T03:16:14;2.50;;;1.97;;
1751;SDS011;873;47.696;8.068;2023-06-24T03:18:40;1.60;;;1.30;;
1751;SDS011;873;47.696;8.068;2023-06-24T03:21:06;2.17;;;1.30;;
1751;SDS011;873;47.696;8.068;2023-06-24T03:23:32;3.40;;;1.80;;
1751;SDS011;873;47.696;8.068;2023-06-24T03:25:58;2.43;;;1.50;;
1751;SDS011;873;47.696;8.068;2023-06-24T03:28:23;3.37;;;1.83;;
1751;SDS011;873;47.696;8.068;2023-06-24T03:30:49;4.37;;;2.20;;
1751;SDS011;873;47.696;8.068;2023-06-24T03:33:14;1.70;;;1.27;;
1751;SDS011;873;47.696;8.068;2023-06-24T03:35:42;2.57;;;1.80;;
1751;SDS011;873;47.696;8.068;2023-06-24T03:38:08;2.77;;;1.80;;
1751;SDS011;873;47.696;8.068;2023-06-24T03:40:33;1.80;;;1.50;;
1751;SDS011;873;47.696;8.068;2023-06-24T03:42:59;2.23;;;1.67;;
1751;SDS011;873;47.696;8.068;2023-06-24T03:45:24;2.60;;;1.53;;
1751;SDS011;873;47.696;8.068;2023-06-24T03:47:50;3.57;;;2.40;;
1751;SDS011;873;47.696;8.068;2023-06-24T03:50:15;2.60;;;1.00;;
1751;SDS011;873;47.696;8.068;2023-06-24T03:52:41;2.40;;;1.50;;
1751;SDS011;873;47.696;8.068;2023-06-24T03:55:06;2.20;;;1.47;;
1751;SDS011;873;47.696;8.068;2023-06-24T03:57:32;3.40;;;2.03;;
1751;SDS011;873;47.696;8.068;2023-06-24T03:59:58;2.70;;;1.50;;
1751;SDS011;873;47.696;8.068;2023-06-24T04:02:24;2.17;;;1.60;;
1751;SDS011;873;47.696;8.068;2023-06-24T04:04:51;2.73;;;1.33;;
1751;SDS011;873;47.696;8.068;2023-06-24T04:07:17;2.07;;;1.60;;
1751;SDS011;873;47.696;8.068;2023-06-24T04:09:53;2.47;;;1.63;;
1751;SDS011;873;47.696;8.068;2023-06-24T04:12:19;2.97;;;1.40;;
1751;SDS011;873;47.696;8.068;2023-06-24T04:14:45;2.00;;;1.30;;
1751;SDS011;873;47.696;8.068;2023-06-24T04:17:10;2.27;;;1.27;;
1751;SDS011;873;47.696;8.068;2023-06-24T04:19:36;1.40;;;1.10;;
1751;SDS011;873;47.696;8.068;2023-06-24T04:22:01;2.17;;;1.40;;
1751;SDS011;873;47.696;8.068;2023-06-24T04:24:27;3.97;;;1.20;;
1751;SDS011;873;47.696;8.068;2023-06-24T04:26:52;1.33;;;1.10;;
1751;SDS011;873;47.696;8.068;2023-06-24T04:29:18;2.33;;;1.40;;
1751;SDS011;873;47.696;8.068;2023-06-24T04:31:43;1.93;;;1.40;;
1751;SDS011;873;47.696;8.068;2023-06-24T04:34:09;1.43;;;1.07;;
1751;SDS011;873;47.696;8.068;2023-06-24T04:36:34;1.63;;;1.10;;
1751;SDS011;873;47.696;8.068;2023-06-24T04:39:00;2.50;;;1.30;;
1751;SDS011;873;47.696;8.068;2023-06-24T04:41:26;3.23;;;1.70;;
1751;SDS011;873;47.696;8.068;2023-06-24T04:43:52;2.83;;;1.37;;
1751;SDS011;873;47.696;8.068;2023-06-24T04:46:17;2.17;;;1.20;;
1751;SDS011;873;47.696;8.068;2023-06-24T04:48:43;2.80;;;1.30;;
1751;SDS011;873;47.696;8.068;2023-06-24T04:51:08;2.00;;;1.27;;
1751;SDS011;873;47.696;8.068;2023-06-24T04:53:34;1.70;;;1.43;;
1751;SDS011;873;47.696;8.068;2023-06-24T04:56:00;2.73;;;1.60;;
1751;SDS011;873;47.696;8.068;2023-06-24T04:58:25;2.43;;;1.50;;
1751;SDS011;873;47.696;8.068;2023-06-24T05:00:51;1.20;;;1.10;;
1751;SDS011;873;47.696;8.068;2023-06-24T05:03:16;1.80;;;1.10;;
1751;SDS011;873;47.696;8.068;2023-06-24T05:05:42;2.53;;;1.20;;
1751;SDS011;873;47.696;8.068;2023-06-24T05:08:08;2.00;;;1.40;;
1751;SDS011;873;47.696;8.068;2023-06-24T05:10:33;2.67;;;1.60;;
1751;SDS011;873;47.696;8.068;2023-06-24T05:12:58;3.97;;;1.47;;
1751;SDS011;873;47.696;8.068;2023-06-24T05:15:24;1.87;;;1.40;;
1751;SDS011;873;47.696;8.068;2023-06-24T05:17:49;2.27;;;1.30;;
1751;SDS011;873;47.696;8.068;2023-06-24T05:20:15;1.97;;;1.23;;
1751;SDS011;873;47.696;8.068;2023-06-24T05:22:42;2.77;;;1.47;;
1751;SDS011;873;47.696;8.068;2023-06-24T05:25:09;1.87;;;1.20;;
1751;SDS011;873;47.696;8.068;2023-06-24T05:27:35;2.87;;;1.50;;
1751;SDS011;873;47.696;8.068;2023-06-24T05:30:00;1.47;;;1.20;;
1751;SDS011;873;47.696;8.068;2023-06-24T05:32:26;2.57;;;1.60;;
1751;SDS011;873;47.696;8.068;2023-06-24T05:34:52;2.33;;;1.47;;
1751;SDS011;873;47.696;8.068;2023-06-24T05:37:17;2.63;;;1.50;;
1751;SDS011;873;47.696;8.068;2023-06-24T05:39:43;1.67;;;1.30;;
1751;SDS011;873;47.696;8.068;2023-06-24T05:42:08;1.60;;;1.37;;
1751;SDS011;873;47.696;8.068;2023-06-24T05:44:34;2.00;;;1.20;;
1751;SDS011;873;47.696;8.068;2023-06-24T05:46:59;2.27;;;1.30;;
1751;SDS011;873;47.696;8.068;2023-06-24T05:49:25;3.13;;;1.17;;
1751;SDS011;873;47.696;8.068;2023-06-24T05:51:50;2.07;;;1.50;;
1751;SDS011;873;47.696;8.068;2023-06-24T05:54:16;2.63;;;1.40;;
1751;SDS011;873;47.696;8.068;2023-06-24T05:56:41;1.83;;;1.40;;
1751;SDS011;873;47.696;8.068;2023-06-24T05:59:07;1.47;;;1.00;;
1751;SDS011;873;47.696;8.068;2023-06-24T06:01:33;2.00;;;1.33;;
1751;SDS011;873;47.696;8.068;2023-06-24T06:03:59;1.27;;;1.00;;
1751;SDS011;873;47.696;8.068;2023-06-24T06:06:24;2.10;;;1.53;;
1751;SDS011;873;47.696;8.068;2023-06-24T06:08:50;2.30;;;1.27;;
1751;SDS011;873;47.696;8.068;2023-06-24T06:11:15;2.17;;;1.43;;
1751;SDS011;873;47.696;8.068;2023-06-24T06:13:41;1.80;;;1.50;;
1751;SDS011;873;47.696;8.068;2023-06-24T06:16:06;2.53;;;1.60;;
1751;SDS011;873;47.696;8.068;2023-06-24T06:18:32;2.00;;;1.20;;
1751;SDS011;873;47.696;8.068;2023-06-24T06:20:58;1.93;;;1.20;;
1751;SDS011;873;47.696;8.068;2023-06-24T06:23:23;3.03;;;1.40;;
1751;SDS011;873;47.696;8.068;2023-06-24T06:25:49;1.70;;;1.20;;
1751;SDS011;873;47.696;8.068;2023-06-24T06:28:15;2.43;;;1.53;;
1751;SDS011;873;47.696;8.068;2023-06-24T06:30:40;1.97;;;1.30;;
1751;SDS011;873;47.696;8.068;2023-06-24T06:33:06;1.87;;;1.03;;
1751;SDS011;873;47.696;8.068;2023-06-24T06:35:32;2.63;;;1.53;;
1751;SDS011;873;47.696;8.068;2023-06-24T06:37:57;2.20;;;1.30;;
1751;SDS011;873;47.696;8.068;2023-06-24T06:40:23;1.93;;;1.53;;
1751;SDS011;873;47.696;8.068;2023-06-24T06:42:49;2.23;;;1.50;;
1751;SDS011;873;47.696;8.068;2023-06-24T06:45:15;1.77;;;1.40;;
1751;SDS011;873;47.696;8.068;2023-06-24T06:47:40;1.70;;;1.33;;
1751;SDS011;873;47.696;8.068;2023-06-24T06:50:06;1.50;;;1.10;;
1751;SDS011;873;47.696;8.068;2023-06-24T06:52:33;2.93;;;1.43;;
1751;SDS011;873;47.696;8.068;2023-06-24T06:54:58;1.70;;;1.37;;
1751;SDS011;873;47.696;8.068;2023-06-24T06:57:24;2.03;;;1.40;;
1751;SDS011;873;47.696;8.068;2023-06-24T06:59:50;1.90;;;1.27;;
1751;SDS011;873;47.696;8.068;2023-06-24T07:02:16;1.37;;;1.07;;
1751;SDS011;873;47.696;8.068;2023-06-24T07:04:42;1.20;;;0.93;;
1751;SDS011;873;47.696;8.068;2023-06-24T07:07:08;1.30;;;1.10;;
1751;SDS011;873;47.696;8.068;2023-06-24T07:09:34;1.87;;;1.40;;
1751;SDS011;873;47.696;8.068;2023-06-24T07:11:59;1.90;;;1.47;;
1751;SDS011;873;47.696;8.068;2023-06-24T07:14:25;1.97;;;1.30;;
1751;SDS011;873;47.696;8.068;2023-06-24T07:16:50;1.87;;;1.20;;
1751;SDS011;873;47.696;8.068;2023-06-24T07:19:16;1.87;;;1.27;;
1751;SDS011;873;47.696;8.068;2023-06-24T07:21:42;1.47;;;1.20;;
1751;SDS011;873;47.696;8.068;2023-06-24T07:24:07;1.87;;;1.40;;
1751;SDS011;873;47.696;8.068;2023-06-24T07:26:32;3.23;;;1.77;;
1751;SDS011;873;47.696;8.068;2023-06-24T07:28:58;2.23;;;1.53;;
1751;SDS011;873;47.696;8.068;2023-06-24T07:31:25;1.30;;;1.17;;
1751;SDS011;873;47.696;8.068;2023-06-24T07:33:51;2.03;;;1.10;;
1751;SDS011;873;47.696;8.068;2023-06-24T07:36:16;2.23;;;1.50;;
1751;SDS011;873;47.696;8.068;2023-06-24T07:38:42;3.37;;;1.70;;
1751;SDS011;873;47.696;8.068;2023-06-24T07:41:08;1.30;;;1.20;;
1751;SDS011;873;47.696;8.068;2023-06-24T07:43:33;1.47;;;1.17;;
1751;SDS011;873;47.696;8.068;2023-06-24T07:45:58;2.37;;;1.50;;
1751;SDS011;873;47.696;8.068;2023-06-24T07:48:24;1.67;;;1.00;;
1751;SDS011;873;47.696;8.068;2023-06-24T07:50:50;1.47;;;1.07;;
1751;SDS011;873;47.696;8.068;2023-06-24T07:53:15;1.60;;;1.43;;
1751;SDS011;873;47.696;8.068;2023-06-24T07:55:41;1.67;;;1.57;;
1751;SDS011;873;47.696;8.068;2023-06-24T07:58:07;1.20;;;1.00;;
1751;SDS011;873;47.696;8.068;2023-06-24T08:00:33;1.87;;;1.43;;
1751;SDS011;873;47.696;8.068;2023-06-24T08:02:58;1.37;;;1.27;;
1751;SDS011;873;47.696;8.068;2023-06-24T08:05:24;1.17;;;1.03;;
1751;SDS011;873;47.696;8.068;2023-06-24T08:07:50;1.30;;;1.17;;
1751;SDS011;873;47.696;8.068;2023-06-24T08:10:16;1.20;;;1.10;;
1751;SDS011;873;47.696;8.068;2023-06-24T08:12:41;1.40;;;1.30;;
1751;SDS011;873;47.696;8.068;2023-06-24T08:15:07;2.33;;;1.67;;
1751;SDS011;873;47.696;8.068;2023-06-24T08:17:33;1.77;;;1.20;;
1751;SDS011;873;47.696;8.068;2023-06-24T08:19:58;1.30;;;1.20;;
1751;SDS011;873;47.696;8.068;2023-06-24T08:22:26;1.00;;;0.93;;
1751;SDS011;873;47.696;8.068;2023-06-24T08:24:52;1.70;;;1.13;;
1751;SDS011;873;47.696;8.068;2023-06-24T08:27:17;1.30;;;1.00;;
1751;SDS011;873;47.696;8.068;2023-06-24T08:29:43;1.30;;;1.00;;
1751;SDS011;873;47.696;8.068;2023-06-24T08:32:08;1.73;;;1.20;;
1751;SDS011;873;47.696;8.068;2023-06-24T08:34:34;1.27;;;1.17;;
1751;SDS011;873;47.696;8.068;2023-06-24T08:37:00;1.00;;;1.00;;
1751;SDS011;873;47.696;8.068;2023-06-24T08:39:25;1.60;;;0.97;;
1751;SDS011;873;47.696;8.068;2023-06-24T08:41:51;1.47;;;1.10;;
1751;SDS011;873;47.696;8.068;2023-06-24T08:44:17;1.23;;;1.10;;
1751;SDS011;873;47.696;8.068;2023-06-24T08:46:42;1.30;;;1.20;;
1751;SDS011;873;47.696;8.068;2023-06-24T08:52:02;1.20;;;1.00;;
1751;SDS011;873;47.696;8.068;2023-06-24T08:54:30;1.63;;;1.07;;
1751;SDS011;873;47.696;8.068;2023-06-24T08:56:57;1.40;;;1.30;;
1751;SDS011;873;47.696;8.068;2023-06-24T08:59:23;1.13;;;0.90;;
1751;SDS011;873;47.696;8.068;2023-06-24T09:01:50;2.10;;;1.13;;
1751;SDS011;873;47.696;8.068;2023-06-24T09:04:15;0.93;;;0.83;;
1751;SDS011;873;47.696;8.068;2023-06-24T09:06:41;1.10;;;1.00;;
1751;SDS011;873;47.696;8.068;2023-06-24T09:09:16;0.90;;;0.80;;
1751;SDS011;873;47.696;8.068;2023-06-24T09:11:45;1.10;;;1.00;;
1751;SDS011;873;47.696;8.068;2023-06-24T09:14:17;1.23;;;1.10;;
1751;SDS011;873;47.696;8.068;2023-06-24T09:16:50;1.40;;;1.07;;
1751;SDS011;873;47.696;8.068;2023-06-24T09:19:24;1.47;;;1.20;;
1751;SDS011;873;47.696;8.068;2023-06-24T09:21:55;1.30;;;1.07;;
1751;SDS011;873;47.696;8.068;2023-06-24T09:24:27;0.80;;;0.80;;
1751;SDS011;873;47.696;8.068;2023-06-24T09:26:55;1.00;;;0.97;;
1751;SDS011;873;47.696;8.068;2023-06-24T09:29:25;1.07;;;0.87;;
1751;SDS011;873;47.696;8.068;2023-06-24T09:31:51;1.10;;;1.00;;
1751;SDS011;873;47.696;8.068;2023-06-24T09:34:18;1.20;;;1.10;;
1751;SDS011;873;47.696;8.068;2023-06-24T09:36:51;1.53;;;1.17;;
1751;SDS011;873;47.696;8.068;2023-06-24T09:39:18;1.20;;;1.10;;
1751;SDS011;873;47.696;8.068;2023-06-24T09:41:48;1.33;;;1.00;;
1751;SDS011;873;47.696;8.068;2023-06-24T09:44:15;1.40;;;0.97;;
1751;SDS011;873;47.696;8.068;2023-06-24T09:46:41;1.17;;;0.93;;
1751;SDS011;873;47.696;8.068;2023-06-24T09:49:08;1.30;;;0.90;;
1751;SDS011;873;47.696;8.068;2023-06-24T09:51:35;1.33;;;1.17;;
1751;SDS011;873;47.696;8.068;2023-06-24T09:54:04;1.53;;;1.03;;
1751;SDS011;873;47.696;8.068;2023-06-24T09:56:34;1.23;;;0.90;;
1751;SDS011;873;47.696;8.068;2023-06-24T09:59:02;1.20;;;1.10;;
1751;SDS011;873;47.696;8.068;2023-06-24T10:01:30;1.13;;;0.90;;
1751;SDS011;873;47.696;8.068;2023-06-24T10:03:57;0.80;;;0.70;;
1751;SDS011;873;47.696;8.068;2023-06-24T10:06:24;0.80;;;0.70;;
1751;SDS011;873;47.696;8.068;2023-06-24T10:08:50;1.00;;;1.00;;
1751;SDS011;873;47.696;8.068;2023-06-24T10:11:16;1.20;;;1.00;;
1751;SDS011;873;47.696;8.068;2023-06-24T10:13:42;3.23;;;1.00;;
1751;SDS011;873;47.696;8.068;2023-06-24T10:16:07;1.10;;;0.87;;
1751;SDS011;873;47.696;8.068;2023-06-24T10:18:35;1.43;;;1.10;;
1751;SDS011;873;47.696;8.068;2023-06-24T10:21:03;1.10;;;0.80;;
1751;SDS011;873;47.696;8.068;2023-06-24T10:23:31;1.23;;;1.00;;
1751;SDS011;873;47.696;8.068;2023-06-24T10:25:58;1.60;;;1.33;;
1751;SDS011;873;47.696;8.068;2023-06-24T10:28:23;1.57;;;1.13;;
1751;SDS011;873;47.696;8.068;2023-06-24T10:30:56;0.90;;;0.90;;
1751;SDS011;873;47.696;8.068;2023-06-24T10:33:23;1.73;;;1.00;;
1751;SDS011;873;47.696;8.068;2023-06-24T10:35:49;1.27;;;1.10;;
1751;SDS011;873;47.696;8.068;2023-06-24T10:38:15;1.10;;;1.00;;
1751;SDS011;873;47.696;8.068;2023-06-24T10:40:42;2.40;;;1.20;;
1751;SDS011;873;47.696;8.068;2023-06-24T10:46:00;1.73;;;1.10;;
1751;SDS011;873;47.696;8.068;2023-06-24T10:48:26;1.00;;;0.90;;
1751;SDS011;873;47.696;8.068;2023-06-24T10:50:51;1.10;;;1.00;;
1751;SDS011;873;47.696;8.068;2023-06-24T10:53:17;1.80;;;1.43;;
1751;SDS011;873;47.696;8.068;2023-06-24T10:55:43;1.10;;;0.87;;
1751;SDS011;873;47.696;8.068;2023-06-24T10:58:10;1.80;;;1.33;;
1751;SDS011;873;47.696;8.068;2023-06-24T11:00:38;0.97;;;0.90;;
1751;SDS011;873;47.696;8.068;2023-06-24T11:03:08;1.20;;;1.10;;
1751;SDS011;873;47.696;8.068;2023-06-24T11:05:46;1.40;;;1.23;;
1751;SDS011;873;47.696;8.068;2023-06-24T11:08:11;1.03;;;0.73;;
1751;SDS011;873;47.696;8.068;2023-06-24T11:10:45;1.30;;;1.03;;
1751;SDS011;873;47.696;8.068;2023-06-24T11:13:11;1.00;;;0.90;;
1751;SDS011;873;47.696;8.068;2023-06-24T11:15:38;1.23;;;1.10;;
1751;SDS011;873;47.696;8.068;2023-06-24T11:18:05;1.17;;;0.77;;
1751;SDS011;873;47.696;8.068;2023-06-24T11:20:30;1.83;;;1.33;;
1751;SDS011;873;47.696;8.068;2023-06-24T11:22:55;0.80;;;0.70;;
1751;SDS011;873;47.696;8.068;2023-06-24T11:25:21;1.10;;;1.10;;
1751;SDS011;873;47.696;8.068;2023-06-24T11:27:47;1.70;;;1.20;;
1751;SDS011;873;47.696;8.068;2023-06-24T11:30:13;1.10;;;1.00;;
1751;SDS011;873;47.696;8.068;2023-06-24T11:32:40;0.80;;;0.80;;
1751;SDS011;873;47.696;8.068;2023-06-24T11:35:08;1.40;;;1.20;;
1751;SDS011;873;47.696;8.068;2023-06-24T11:37:35;1.63;;;1.17;;
1751;SDS011;873;47.696;8.068;2023-06-24T11:40:01;1.80;;;1.30;;
1751;SDS011;873;47.696;8.068;2023-06-24T11:42:30;1.30;;;1.20;;
1751;SDS011;873;47.696;8.068;2023-06-24T11:45:00;1.57;;;1.20;;
1751;SDS011;873;47.696;8.068;2023-06-24T11:47:31;1.37;;;1.17;;
1751;SDS011;873;47.696;8.068;2023-06-24T11:49:58;1.33;;;1.23;;
1751;SDS011;873;47.696;8.068;2023-06-24T11:55:56;1.20;;;0.93;;
1751;SDS011;873;47.696;8.068;2023-06-24T11:58:24;1.50;;;1.40;;
1751;SDS011;873;47.696;8.068;2023-06-24T12:00:51;1.20;;;1.10;;
1751;SDS011;873;47.696;8.068;2023-06-24T12:03:22;1.13;;;1.00;;
1751;SDS011;873;47.696;8.068;2023-06-24T12:05:47;1.40;;;1.30;;
1751;SDS011;873;47.696;8.068;2023-06-24T12:08:13;1.20;;;1.03;;
1751;SDS011;873;47.696;8.068;2023-06-24T12:10:40;1.40;;;1.10;;
1751;SDS011;873;47.696;8.068;2023-06-24T12:13:06;1.03;;;1.00;;
1751;SDS011;873;47.696;8.068;2023-06-24T12:15:33;1.20;;;1.10;;
1751;SDS011;873;47.696;8.068;2023-06-24T12:18:00;1.37;;;1.27;;
1751;SDS011;873;47.696;8.068;2023-06-24T12:20:28;1.43;;;1.33;;
1751;SDS011;873;47.696;8.068;2023-06-24T12:22:55;1.47;;;1.37;;
1751;SDS011;873;47.696;8.068;2023-06-24T12:25:20;1.30;;;1.20;;
1751;SDS011;873;47.696;8.068;2023-06-24T12:27:47;1.17;;;1.07;;
1751;SDS011;873;47.696;8.068;2023-06-24T12:30:12;1.80;;;1.40;;
1751;SDS011;873;47.696;8.068;2023-06-24T12:32:39;1.30;;;1.20;;
1751;SDS011;873;47.696;8.068;2023-06-24T12:35:05;1.43;;;1.13;;
1751;SDS011;873;47.696;8.068;2023-06-24T12:37:34;1.30;;;1.07;;
1751;SDS011;873;47.696;8.068;2023-06-24T12:40:00;1.17;;;1.07;;
1751;SDS011;873;47.696;8.068;2023-06-24T12:42:27;1.63;;;1.17;;
1751;SDS011;873;47.696;8.068;2023-06-24T12:44:53;1.57;;;1.10;;
1751;SDS011;873;47.696;8.068;2023-06-24T12:47:20;1.13;;;1.03;;
1751;SDS011;873;47.696;8.068;2023-06-24T12:49:46;2.00;;;1.10;;
1751;SDS011;873;47.696;8.068;2023-06-24T12:52:12;1.20;;;1.00;;
1751;SDS011;873;47.696;8.068;2023-06-24T12:54:38;1.33;;;1.20;;
1751;SDS011;873;47.696;8.068;2023-06-24T12:57:04;2.00;;;1.20;;
1751;SDS011;873;47.696;8.068;2023-06-24T12:59:29;1.30;;;1.10;;
1751;SDS011;873;47.696;8.068;2023-06-24T13:01:55;1.73;;;1.03;;
1751;SDS011;873;47.696;8.068;2023-06-24T13:04:20;1.10;;;1.00;;
1751;SDS011;873;47.696;8.068;2023-06-24T13:06:48;1.50;;;1.40;;
1751;SDS011;873;47.696;8.068;2023-06-24T13:09:14;1.20;;;1.10;;
1751;SDS011;873;47.696;8.068;2023-06-24T13:11:40;1.30;;;1.20;;
1751;SDS011;873;47.696;8.068;2023-06-24T13:14:05;1.50;;;1.40;;
1751;SDS011;873;47.696;8.068;2023-06-24T13:16:31;1.17;;;1.08;;
1751;SDS011;873;47.696;8.068;2023-06-24T13:18:57;0.95;;;0.90;;
1751;SDS011;873;47.696;8.068;2023-06-24T13:21:23;1.20;;;1.10;;
1751;SDS011;873;47.696;8.068;2023-06-24T13:23:49;1.30;;;1.20;;
1751;SDS011;873;47.696;8.068;2023-06-24T13:26:15;1.17;;;1.08;;
1751;SDS011;873;47.696;8.068;2023-06-24T13:28:40;1.20;;;1.00;;
1751;SDS011;873;47.696;8.068;2023-06-24T13:31:06;1.52;;;1.17;;
1751;SDS011;873;47.696;8.068;2023-06-24T13:33:31;1.38;;;1.27;;
1751;SDS011;873;47.696;8.068;2023-06-24T13:35:57;1.08;;;0.98;;
1751;SDS011;873;47.696;8.068;2023-06-24T13:38:22;1.30;;;1.02;;
1751;SDS011;873;47.696;8.068;2023-06-24T13:40:48;1.23;;;0.95;;
1751;SDS011;873;47.696;8.068;2023-06-24T13:43:15;1.98;;;1.35;;
1751;SDS011;873;47.696;8.068;2023-06-24T13:45:41;1.50;;;1.10;;
1751;SDS011;873;47.696;8.068;2023-06-24T13:48:07;1.40;;;1.20;;
1751;SDS011;873;47.696;8.068;2023-06-24T13:50:33;1.00;;;0.90;;
1751;SDS011;873;47.696;8.068;2023-06-24T13:52:59;1.57;;;1.30;;
1751;SDS011;873;47.696;8.068;2023-06-24T13:55:24;1.30;;;1.00;;
1751;SDS011;873;47.696;8.068;2023-06-24T13:57:50;1.50;;;1.23;;
1751;SDS011;873;47.696;8.068;2023-06-24T14:00:15;1.13;;;1.05;;
1751;SDS011;873;47.696;8.068;2023-06-24T14:02:41;1.10;;;1.00;;
1751;SDS011;873;47.696;8.068;2023-06-24T14:05:08;1.38;;;1.27;;
1751;SDS011;873;47.696;8.068;2023-06-24T14:07:34;1.38;;;0.90;;
1751;SDS011;873;47.696;8.068;2023-06-24T14:09:59;0.80;;;0.80;;
1751;SDS011;873;47.696;8.068;2023-06-24T14:12:25;1.35;;;1.20;;
1751;SDS011;873;47.696;8.068;2023-06-24T14:14:51;0.90;;;0.90;;
1751;SDS011;873;47.696;8.068;2023-06-24T14:17:17;0.95;;;0.95;;
1751;SDS011;873;47.696;8.068;2023-06-24T14:19:42;1.00;;;0.90;;
1751;SDS011;873;47.696;8.068;2023-06-24T14:22:08;1.17;;;0.90;;
1751;SDS011;873;47.696;8.068;2023-06-24T14:24:34;1.27;;;1.15;;
1751;SDS011;873;47.696;8.068;2023-06-24T14:27:01;1.13;;;1.02;;
1751;SDS011;873;47.696;8.068;2023-06-24T14:29:26;1.25;;;1.15;;
1751;SDS011;873;47.696;8.068;2023-06-24T14:31:52;0.80;;;0.80;;
1751;SDS011;873;47.696;8.068;2023-06-24T14:34:17;1.00;;;0.90;;
1751;SDS011;873;47.696;8.068;2023-06-24T14:36:43;1.30;;;1.20;;
1751;SDS011;873;47.696;8.068;2023-06-24T14:39:09;1.08;;;0.85;;
1751;SDS011;873;47.696;8.068;2023-06-24T14:41:40;0.85;;;0.85;;
1751;SDS011;873;47.696;8.068;2023-06-24T14:44:05;1.75;;;1.10;;
1751;SDS011;873;47.696;8.068;2023-06-24T14:46:31;1.98;;;1.25;;
1751;SDS011;873;47.696;8.068;2023-06-24T14:48:56;1.35;;;1.15;;
1751;SDS011;873;47.696;8.068;2023-06-24T14:51:23;1.13;;;1.05;;
1751;SDS011;873;47.696;8.068;2023-06-24T14:53:49;1.15;;;1.05;;
1751;SDS011;873;47.696;8.068;2023-06-24T14:56:15;1.20;;;0.95;;
1751;SDS011;873;47.696;8.068;2023-06-24T14:58:41;1.25;;;1.10;;
1751;SDS011;873;47.696;8.068;2023-06-24T15:01:06;1.00;;;0.88;;
1751;SDS011;873;47.696;8.068;2023-06-24T15:03:32;0.90;;;0.82;;
1751;SDS011;873;47.696;8.068;2023-06-24T15:05:57;1.20;;;1.10;;
1751;SDS011;873;47.696;8.068;2023-06-24T15:08:24;1.13;;;1.02;;
1751;SDS011;873;47.696;8.068;2023-06-24T15:10:51;1.10;;;1.00;;
1751;SDS011;873;47.696;8.068;2023-06-24T15:13:17;1.52;;;1.15;;
1751;SDS011;873;47.696;8.068;2023-06-24T15:15:43;1.08;;;0.98;;
1751;SDS011;873;47.696;8.068;2023-06-24T15:18:08;1.00;;;0.88;;
1751;SDS011;873;47.696;8.068;2023-06-24T15:20:34;1.33;;;1.23;;
1751;SDS011;873;47.696;8.068;2023-06-24T15:23:00;1.02;;;0.93;;
1751;SDS011;873;47.696;8.068;2023-06-24T15:25:25;1.30;;;1.15;;
1751;SDS011;873;47.696;8.068;2023-06-24T15:27:52;0.95;;;0.90;;
1751;SDS011;873;47.696;8.068;2023-06-24T15:30:18;0.80;;;0.80;;
1751;SDS011;873;47.696;8.068;2023-06-24T15:32:43;1.20;;;1.10;;
1751;SDS011;873;47.696;8.068;2023-06-24T15:35:11;0.80;;;0.80;;
1751;SDS011;873;47.696;8.068;2023-06-24T15:37:37;0.77;;;0.75;;
1751;SDS011;873;47.696;8.068;2023-06-24T15:40:02;1.27;;;1.17;;
1751;SDS011;873;47.696;8.068;2023-06-24T15:42:28;1.00;;;0.90;;